Cairo, IL

10:09 PM CST on December 06, 2019 (GMT -0600)
Cairo Regional

Weather History for KCIR - October, 2019

Change the Weather History Date:

Saturday, October 12, 2019

  Actual Average Record
Temperature  
Mean Temperature 46 °F -  
Max Temperature 58 °F 73 °F 89 °F (1975)
Min Temperature 36 °F 53 °F 34 °F (1988)
Degree Days  
Heating Degree Days 18    
Moisture  
Dew Point 35 °F    
Average Humidity 69    
Maximum Humidity 99    
Minimum Humidity 38    
Precipitation  
Precipitation 0.00 in - - ()
Sea Level Pressure  
Sea Level Pressure 30.18 in    
Wind  
Wind Speed 2 mph ()    
Max Wind Speed 8 mph    
Max Gust Speed -    
Visibility 10.0 miles    
Events      
Averages and records for this station are not official NWS values.
T = Trace of Precipitation, MM = Missing Value Source: Averaged Metar Reports

Daily Weather History Graph

Daily Weather History Graph

Search for Another Location

Airport or City:

Astronomy

Oct. 12, 2019 Rise Set
Actual Time 7:01 AM CDT 6:24 PM CDT
Civil Twilight 6:35 AM CDT 6:50 PM CDT
Nautical Twilight 6:05 AM CDT 7:20 PM CDT
Astronomical Twilight 5:35 AM CDT 7:50 PM CDT
Moon 6:17 PM CDT (10/12) 5:42 AM CDT (10/12)
Length of Visible Light 12h 14m
Length of Day
11h 22m
Waxing Gibbous, 99% of the Moon is Illuminated
Oct 12
Waxing Gibbous
Oct 13
Full
Oct 21
Last Quarter
Oct 27
New
Nov 4
First Quarter

Hourly Weather History & Observations

Time (CDT) Temp. Windchill Dew Point Humidity Pressure Visibility Wind Dir Wind Speed Gust Speed Precip Events Conditions
12:15 AM 40.5 °F - 38.1 °F 91% 30.23 in 10.0 mi Calm Calm - N/A   Clear
12:35 AM 40.5 °F - 37.2 °F 88% 30.23 in 10.0 mi Calm Calm - N/A   Clear
12:55 AM 39.2 °F - 37.4 °F 93% 30.22 in 10.0 mi Calm Calm - N/A   Clear
1:15 AM 39.6 °F - 37.4 °F 92% 30.22 in 10.0 mi Calm Calm - N/A   Clear
1:35 AM 38.7 °F - 37.0 °F 94% 30.22 in 10.0 mi Calm Calm - N/A   Clear
1:55 AM 41.7 °F - 34.7 °F 76% 30.23 in 10.0 mi Calm Calm - N/A   Clear
2:15 AM 40.3 °F - 36.0 °F 85% 30.22 in 10.0 mi Calm Calm - N/A   Clear
2:35 AM 41.5 °F 37.8 °F 40.1 °F 95% 30.22 in 10.0 mi West 5.8 mph - N/A   Clear
2:55 AM 40.5 °F 38.4 °F 38.8 °F 94% 30.22 in 10.0 mi West 3.5 mph - N/A   Clear
3:15 AM 39.2 °F 35.9 °F 38.5 °F 97% 30.21 in 10.0 mi West 4.6 mph - N/A   Clear
3:30 AM 38.7 °F - 37.9 °F 97% 30.21 in 10.0 mi Calm Calm - N/A   Clear
3:55 AM 38.1 °F 35.7 °F 37.6 °F 98% 30.22 in 10.0 mi WNW 3.5 mph - N/A   Clear
4:15 AM 37.8 °F 35.3 °F 37.0 °F 97% 30.22 in 10.0 mi NW 3.5 mph - N/A   Clear
4:35 AM 37.4 °F 33.8 °F 36.9 °F 98% 30.23 in 10.0 mi WNW 4.6 mph - N/A   Clear
4:55 AM 37.8 °F 35.3 °F 37.4 °F 99% 30.23 in 10.0 mi WNW 3.5 mph - N/A   Clear
5:15 AM 37.8 °F 34.2 °F 37.2 °F 98% 30.23 in 10.0 mi WNW 4.6 mph - N/A   Clear
5:35 AM 37.4 °F - 36.7 °F 97% 30.24 in 10.0 mi Calm Calm - N/A   Clear
5:55 AM 38.3 °F - 37.0 °F 95% 30.25 in 10.0 mi Calm Calm - N/A   Clear
6:15 AM 38.3 °F - 36.9 °F 95% 30.25 in 10.0 mi Calm Calm - N/A   Clear
6:35 AM 37.6 °F - 36.7 °F 97% 30.25 in 10.0 mi Calm Calm - N/A   Clear
6:55 AM 36.5 °F - 36.0 °F 98% 30.25 in 10.0 mi Calm Calm - N/A   Clear
7:15 AM 36.3 °F - 35.8 °F 98% 30.24 in 10.0 mi Calm Calm - N/A   Clear
7:35 AM 36.7 °F - 36.5 °F 99% 30.24 in 10.0 mi Calm Calm - N/A   Clear
7:55 AM 38.5 °F - 38.3 °F 99% 30.24 in 10.0 mi Calm Calm - N/A   Clear
8:15 AM 40.5 °F - 39.6 °F 97% 30.24 in 10.0 mi Calm Calm - N/A   Clear
8:35 AM 43.3 °F - 41.4 °F 93% 30.24 in 10.0 mi Calm Calm - N/A   Clear
8:55 AM 44.2 °F - 38.1 °F 79% 30.24 in 10.0 mi Calm Calm - N/A   Clear
9:15 AM 45.3 °F - 38.8 °F 78% 30.24 in 10.0 mi Calm Calm - N/A   Clear
9:35 AM 46.8 °F - 35.4 °F 65% 30.25 in 10.0 mi Calm Calm - N/A   Clear
9:55 AM 47.3 °F - 27.1 °F 46% 30.25 in 10.0 mi WNW 3.5 mph - N/A   Clear
10:15 AM 48.2 °F - 32.4 °F 54% 30.25 in 10.0 mi Calm Calm - N/A   Clear
10:35 AM 48.6 °F - 32.2 °F 53% 30.26 in 10.0 mi SW 3.5 mph - N/A   Clear
10:55 AM 49.1 °F - 33.1 °F 54% 30.25 in 10.0 mi West 3.5 mph - N/A   Clear
11:15 AM 51.1 °F - 32.2 °F 48% 30.25 in 10.0 mi West 5.8 mph - N/A   Clear
11:35 AM 51.1 °F - 31.8 °F 48% 30.25 in 10.0 mi WSW 4.6 mph - N/A   Clear
11:55 AM 51.6 °F - 29.5 °F 43% 30.24 in 10.0 mi NW 3.5 mph - N/A   Clear
12:15 PM 51.4 °F - 30.6 °F 45% 30.23 in 10.0 mi Calm Calm - N/A   Clear
12:35 PM 52.0 °F - 30.7 °F 44% 30.23 in 10.0 mi West 4.6 mph - N/A   Clear
12:55 PM 52.5 °F - 30.6 °F 43% 30.21 in 10.0 mi WSW 3.5 mph - N/A   Clear
1:15 PM 52.9 °F - 31.1 °F 43% 30.20 in 10.0 mi Calm Calm - N/A   Clear
1:35 PM 54.5 °F - 32.9 °F 44% 30.19 in 10.0 mi South 4.6 mph - N/A   Clear
1:55 PM 54.9 °F - 32.4 °F 42% 30.18 in 10.0 mi Calm Calm - N/A   Clear
2:15 PM 54.7 °F - 31.6 °F 42% 30.17 in 10.0 mi Calm Calm - N/A   Clear
2:35 PM 55.4 °F - 31.6 °F 40% 30.15 in 10.0 mi SW 4.6 mph - N/A   Clear
2:55 PM 55.6 °F - 31.8 °F 41% 30.14 in 10.0 mi Calm Calm - N/A   Clear
3:15 PM 56.5 °F - 32.4 °F 40% 30.13 in 10.0 mi South 4.6 mph - N/A   Clear
3:35 PM 57.7 °F - 32.4 °F 38% 30.13 in 10.0 mi SSE 4.6 mph - N/A   Clear
3:55 PM 57.7 °F - 33.1 °F 39% 30.13 in 10.0 mi SW 4.6 mph - N/A   Clear
4:15 PM 57.4 °F - 32.4 °F 39% 30.12 in 10.0 mi SSW 4.6 mph - N/A   Clear
4:35 PM 57.4 °F - 32.5 °F 39% 30.11 in 10.0 mi SSW 4.6 mph - N/A   Clear
4:55 PM 56.8 °F - 33.1 °F 41% 30.11 in 10.0 mi SSW 8.1 mph - N/A   Clear
5:15 PM 56.3 °F - 32.4 °F 40% 30.11 in 10.0 mi Calm Calm - N/A   Clear
5:35 PM 56.1 °F - 33.1 °F 42% 30.11 in 10.0 mi Calm Calm - N/A   Clear
5:55 PM 54.7 °F - 35.6 °F 49% 30.10 in 10.0 mi Calm Calm - N/A   Clear
6:15 PM 52.9 °F - 36.5 °F 54% 30.10 in 10.0 mi SSW 3.5 mph - N/A   Clear
6:35 PM 51.8 °F - 37.0 °F 57% 30.10 in 10.0 mi Calm Calm - N/A   Clear
6:55 PM 50.4 °F - 37.6 °F 62% 30.10 in 10.0 mi Calm Calm - N/A   Clear
7:15 PM 50.9 °F - 36.5 °F 58% 30.10 in 10.0 mi Calm Calm - N/A   Clear
7:35 PM 49.6 °F - 37.0 °F 62% 30.10 in 10.0 mi Calm Calm - N/A   Clear
7:55 PM 47.8 °F - 37.0 °F 66% 30.10 in 10.0 mi Calm Calm - N/A   Clear
8:15 PM 45.9 °F - 38.7 °F 76% 30.10 in 10.0 mi Calm Calm - N/A   Clear
8:35 PM 45.7 °F - 39.6 °F 79% 30.09 in 10.0 mi Calm Calm - N/A   Clear
8:55 PM 45.7 °F 44.4 °F 38.8 °F 77% 30.08 in 10.0 mi South 3.5 mph - N/A   Clear
9:15 PM 47.5 °F - 36.1 °F 65% 30.08 in 10.0 mi South 3.5 mph - N/A   Clear
9:35 PM 47.8 °F - 35.8 °F 63% 30.08 in 10.0 mi South 3.5 mph - N/A   Clear
9:55 PM 48.2 °F - 35.6 °F 62% 30.08 in 10.0 mi South 3.5 mph - N/A   Clear
10:15 PM 46.6 °F - 36.0 °F 67% 30.07 in 10.0 mi SSW 3.5 mph - N/A   Clear
10:35 PM 46.6 °F - 35.8 °F 66% 30.07 in 10.0 mi South 4.6 mph - N/A   Clear
10:55 PM 46.0 °F 43.9 °F 36.5 °F 69% 30.07 in 10.0 mi South 4.6 mph - N/A   Clear
11:15 PM 45.9 °F 42.9 °F 36.9 °F 71% 30.07 in 10.0 mi South 5.8 mph - N/A   Clear
11:35 PM 45.7 °F 42.7 °F 36.9 °F 71% 30.06 in 10.0 mi South 5.8 mph - N/A   Clear
11:55 PM 45.9 °F 43.6 °F 37.4 °F 72% 30.06 in 10.0 mi South 4.6 mph - N/A   Clear